Rex, Arkansas
Current Conditions -  °F | °C
As of 11:19 PM on Saturday 25 Oct 2014 (Local Time) from KRUE Reporting Station
Haze Haze  
Wind Chill: 61°   Ceiling: Unl
Heat Index: 61°   Visibility: 2.5mi
Dew Point: 59°   Wind: 0mph
Humidity: 93%   Direction: NA
Pressure: 30.02"   Gusts: NA
Location:  35.6269°N, 92.5508°W
Report Text: KRUE 260419Z AUTO 00000KT 2 1/2SM BR FEW005 16/15 A3002 RMK AO2 T01610150
Loading
Personal Weather Stations






























Interactive Weather Map
Tropical Storm Tracking
New forecast layout! Learn more

10-Day Weather Forecast

Advertisements
Track Severe Weather on mobile